Time;durP1;ratioP1;P1;durP2;ratioP2;P2;SDS_P1;SDS_P2;PMS_P1;PMS_P2;Temp;Humidity;BMP_temperature;BMP_pressure;BME280_temperature;BME280_humidity;BME280_pressure;Samples;Min_cycle;Max_cycle;Signal;HPM_P1;HPM_P2
2022/03/20 00:00:12;;;;;;;27.33;26.23;;;22.00;38.50;;;;;;5095380;28;20457;-47
2022/03/20 00:02:39;;;;;;;26.60;25.47;;;22.00;38.50;;;;;;5095819;28;20450;-49
2022/03/20 00:05:06;;;;;;;27.77;26.57;;;21.90;38.60;;;;;;5095583;28;20475;-51
2022/03/20 00:07:34;;;;;;;27.00;25.90;;;21.90;38.60;;;;;;5095169;28;20809;-47
2022/03/20 00:10:01;;;;;;;26.93;25.83;;;22.00;38.70;;;;;;5095153;28;20482;-47
2022/03/20 00:12:28;;;;;;;26.63;25.53;;;22.10;38.70;;;;;;5095274;28;20783;-49
2022/03/20 00:14:55;;;;;;;27.17;25.97;;;22.20;38.60;;;;;;5095020;28;20463;-47
2022/03/20 00:17:23;;;;;;;26.63;25.53;;;22.20;38.50;;;;;;5094687;28;20986;-47
2022/03/20 00:19:50;;;;;;;28.53;27.33;;;22.30;38.40;;;;;;5095076;28;20449;-51
2022/03/20 00:22:17;;;;;;;27.47;26.40;;;22.30;38.30;;;;;;5094888;28;20460;-48
2022/03/20 00:24:45;;;;;;;28.57;27.37;;;22.20;38.20;;;;;;5094940;28;20467;-47
2022/03/20 00:27:13;;;;;;;28.57;27.27;;;22.20;38.20;;;;;;5094578;28;20435;-48
2022/03/20 00:29:40;;;;;;;28.00;26.80;;;22.20;38.20;;;;;;5074237;28;20483;-51
2022/03/20 00:32:08;;;;;;;28.23;26.87;;;22.10;38.20;;;;;;5091167;28;20442;-47
2022/03/20 00:34:37;;;;;;;27.60;26.40;;;22.10;38.30;;;;;;5094774;28;20466;-50
2022/03/20 00:37:05;;;;;;;27.30;26.10;;;22.10;38.30;;;;;;5094796;28;20946;-47
2022/03/20 00:39:32;;;;;;;27.40;26.10;;;22.10;38.40;;;;;;5094250;28;20948;-47
2022/03/20 00:41:59;;;;;;;28.27;27.07;;;22.20;38.30;;;;;;5094484;28;20450;-49
2022/03/20 00:44:26;;;;;;;27.63;26.43;;;22.20;38.30;;;;;;5094339;28;20826;-48
2022/03/20 00:46:53;;;;;;;26.80;25.80;;;22.30;38.20;;;;;;5094406;28;20453;-47
2022/03/20 00:49:20;;;;;;;29.70;28.40;;;22.30;38.20;;;;;;5094272;28;20482;-48
2022/03/20 00:51:49;;;;;;;28.03;26.83;;;22.20;38.00;;;;;;5094146;28;20945;-47
2022/03/20 00:54:15;;;;;;;28.73;27.33;;;22.20;38.00;;;;;;5094368;28;20474;-48
2022/03/20 00:56:42;;;;;;;28.00;26.80;;;22.30;38.10;;;;;;5094392;28;20443;-47
2022/03/20 00:59:09;;;;;;;27.27;26.07;;;22.20;38.00;;;;;;5094159;28;20434;-50
2022/03/20 01:01:36;;;;;;;27.20;26.00;;;22.20;38.10;;;;;;5094373;28;20505;-48
2022/03/20 01:04:02;;;;;;;28.17;26.87;;;22.20;38.20;;;;;;5093728;28;20477;-47
2022/03/20 01:06:29;;;;;;;26.43;25.33;;;22.10;38.10;;;;;;5094305;28;20443;-49
2022/03/20 01:08:58;;;;;;;28.90;27.70;;;22.10;38.20;;;;;;5094019;28;20997;-47
2022/03/20 01:11:25;;;;;;;29.00;27.70;;;22.10;38.10;;;;;;5094032;28;20887;-47
2022/03/20 01:13:54;;;;;;;26.80;25.60;;;22.20;38.20;;;;;;5093924;28;20454;-50
2022/03/20 01:16:21;;;;;;;27.70;26.50;;;22.20;38.00;;;;;;5094092;28;20451;-47
2022/03/20 01:18:48;;;;;;;27.10;26.00;;;22.30;38.00;;;;;;5093647;28;20447;-47
2022/03/20 01:21:15;;;;;;;27.63;26.43;;;22.30;37.90;;;;;;5094049;28;20945;-47
2022/03/20 01:23:41;;;;;;;26.70;25.53;;;22.30;37.80;;;;;;5093205;28;20439;-47
2022/03/20 01:26:11;;;;;;;26.83;25.73;;;22.30;37.80;;;;;;5093823;28;20450;-49
2022/03/20 01:28:38;;;;;;;28.17;26.87;;;22.30;37.70;;;;;;5093514;28;20449;-47
2022/03/20 01:31:04;;;;;;;27.30;26.10;;;22.30;37.70;;;;;;5093829;28;20474;-51
2022/03/20 01:33:31;;;;;;;26.97;25.77;;;22.30;37.70;;;;;;5093481;28;20449;-47
2022/03/20 01:36:00;;;;;;;26.87;25.57;;;22.20;37.70;;;;;;5093812;28;20466;-47
2022/03/20 01:38:27;;;;;;;27.60;26.40;;;22.20;37.80;;;;;;5093792;28;20447;-49
2022/03/20 01:40:54;;;;;;;26.60;25.40;;;22.20;37.90;;;;;;5093692;28;20818;-49
2022/03/20 01:43:22;;;;;;;26.40;25.10;;;22.20;37.80;;;;;;5093476;28;20519;-49
2022/03/20 01:45:49;;;;;;;25.87;24.63;;;22.20;37.70;;;;;;5093206;28;20459;-49
2022/03/20 01:48:16;;;;;;;26.83;25.73;;;22.20;37.70;;;;;;5092916;28;20442;-47
2022/03/20 01:50:44;;;;;;;26.80;25.60;;;22.30;37.70;;;;;;5093255;28;20833;-48
2022/03/20 01:53:10;;;;;;;26.23;25.13;;;22.40;37.60;;;;;;5093201;28;20443;-48
2022/03/20 01:55:37;;;;;;;26.63;25.43;;;22.30;37.50;;;;;;5093005;28;20481;-49
2022/03/20 01:58:04;;;;;;;27.37;26.17;;;22.30;37.50;;;;;;5092630;28;20964;-47
2022/03/20 02:00:33;;;;;;;26.57;25.37;;;22.40;37.50;;;;;;5092513;28;20465;-49
2022/03/20 02:02:59;;;;;;;26.93;25.73;;;22.30;37.50;;;;;;5092870;28;20507;-52
2022/03/20 02:05:26;;;;;;;28.43;27.13;;;22.30;37.50;;;;;;5092796;28;20486;-48
2022/03/20 02:07:54;;;;;;;26.53;25.43;;;22.20;37.50;;;;;;5092961;28;20790;-48
2022/03/20 02:10:21;;;;;;;26.93;25.73;;;22.20;37.60;;;;;;5092665;28;20478;-49
2022/03/20 02:12:48;;;;;;;26.60;25.40;;;22.10;37.60;;;;;;5092894;28;20450;-47
2022/03/20 02:15:16;;;;;;;26.70;25.50;;;22.10;37.70;;;;;;5093131;28;20556;-49
2022/03/20 02:17:44;;;;;;;28.53;27.27;;;22.10;37.70;;;;;;5092623;28;20446;-47
2022/03/20 02:20:12;;;;;;;27.37;26.07;;;22.10;37.70;;;;;;5092629;28;20442;-50
2022/03/20 02:22:42;;;;;;;26.90;25.70;;;22.10;37.60;;;;;;5092546;28;20473;-47
2022/03/20 02:25:11;;;;;;;28.70;27.30;;;22.20;37.60;;;;;;5092697;28;20458;-48
2022/03/20 02:27:39;;;;;;;29.80;28.40;;;22.20;37.50;;;;;;5092334;28;20682;-47
2022/03/20 02:30:12;;;;;;;27.47;26.27;;;22.30;37.40;;;;;;5092317;28;20486;-50
2022/03/20 02:32:40;;;;;;;27.50;26.30;;;22.30;37.30;;;;;;5092502;28;20938;-48
2022/03/20 02:35:11;;;;;;;28.87;27.47;;;22.30;37.30;;;;;;5092388;28;20475;-50
2022/03/20 02:37:42;;;;;;;29.60;28.37;;;22.30;37.30;;;;;;5092296;28;20446;-48
2022/03/20 02:40:10;;;;;;;28.47;26.90;;;22.20;37.30;;;;;;5092081;28;20441;-49
2022/03/20 02:42:37;;;;;;;29.60;28.10;;;22.20;37.30;;;;;;5092417;28;20450;-50
2022/03/20 02:45:06;;;;;;;28.50;27.13;;;22.20;37.40;;;;;;5092078;28;20498;-47
2022/03/20 02:47:37;;;;;;;27.67;26.47;;;22.20;37.40;;;;;;5092029;28;20446;-47
2022/03/20 02:50:06;;;;;;;28.20;27.00;;;22.20;37.40;;;;;;5092121;28;20898;-48
2022/03/20 02:52:47;;;;;;;26.90;25.70;;;22.10;37.40;;;;;;5091979;28;20438;-47
2022/03/20 02:55:15;;;;;;;27.40;26.10;;;22.10;37.50;;;;;;5091983;28;20972;-50
2022/03/20 02:57:42;;;;;;;27.83;26.63;;;22.10;37.60;;;;;;5091986;28;20438;-50
2022/03/20 03:00:10;;;;;;;26.90;25.80;;;22.20;37.60;;;;;;5091989;28;20450;-47
2022/03/20 03:02:42;;;;;;;27.40;26.20;;;22.20;37.50;;;;;;5091965;28;20454;-47
2022/03/20 03:05:09;;;;;;;27.03;25.73;;;22.30;37.50;;;;;;5092171;28;20474;-47
2022/03/20 03:10:55;;;;;;;27.10;26.00;;;22.30;37.30;;;;;;5091933;28;20446;-47
2022/03/20 03:13:10;;;;;;;27.20;26.10;;;22.20;37.30;;;;;;5091949;28;20798;-48
2022/03/20 03:15:37;;;;;;;28.60;27.30;;;22.20;37.30;;;;;;5091690;28;20470;-47
2022/03/20 03:18:04;;;;;;;28.20;26.90;;;22.20;37.40;;;;;;5091328;28;20821;-50
2022/03/20 03:20:31;;;;;;;27.97;26.67;;;22.20;37.40;;;;;;5091822;28;20435;-48
2022/03/20 03:22:58;;;;;;;29.10;27.80;;;22.20;37.40;;;;;;5091811;28;20454;-49
2022/03/20 03:25:26;;;;;;;28.73;27.33;;;22.20;37.40;;;;;;5091382;28;20822;-47
2022/03/20 03:27:54;;;;;;;27.67;26.50;;;22.20;37.40;;;;;;5091634;28;20788;-47
2022/03/20 03:30:21;;;;;;;27.63;26.43;;;22.30;37.40;;;;;;5091660;28;20482;-47
2022/03/20 03:32:48;;;;;;;28.90;27.70;;;22.30;37.30;;;;;;5091722;28;20794;-47
2022/03/20 03:38:00;;;;;;;28.50;27.30;;;22.40;37.20;;;;;;5091546;28;20472;-51
2022/03/20 03:40:30;;;;;;;29.47;28.07;;;22.40;37.10;;;;;;5091526;28;20442;-47
2022/03/20 03:42:57;;;;;;;29.10;27.80;;;22.30;37.10;;;;;;5091757;28;20993;-49
2022/03/20 03:45:24;;;;;;;29.83;28.53;;;22.30;37.10;;;;;;5091838;28;20455;-50
2022/03/20 03:47:52;;;;;;;30.13;28.73;;;22.30;37.10;;;;;;5091436;28;20459;-47
2022/03/20 03:50:19;;;;;;;30.00;28.53;;;22.30;37.20;;;;;;5091554;28;20551;-47
2022/03/20 03:52:47;;;;;;;30.50;29.20;;;22.20;37.20;;;;;;5091624;28;20504;-48
2022/03/20 03:55:14;;;;;;;29.10;27.90;;;22.20;37.30;;;;;;5091603;28;20475;-47
2022/03/20 03:57:45;;;;;;;29.10;27.67;;;22.10;37.90;;;;;;5091372;28;20457;-47
2022/03/20 04:00:12;;;;;;;29.73;28.43;;;22.10;37.40;;;;;;5091244;28;20457;-47
2022/03/20 04:02:39;;;;;;;29.87;28.53;;;22.10;37.40;;;;;;5091539;28;20493;-50
2022/03/20 04:05:07;;;;;;;29.97;28.67;;;22.20;37.50;;;;;;5091580;28;20846;-47
2022/03/20 04:07:34;;;;;;;29.87;28.63;;;22.30;37.50;;;;;;5091190;28;20447;-48
2022/03/20 04:10:02;;;;;;;29.87;28.57;;;22.30;37.40;;;;;;5091253;28;20486;-47
2022/03/20 04:12:29;;;;;;;28.90;27.70;;;22.30;37.30;;;;;;5091305;28;20480;-49
2022/03/20 04:15:02;;;;;;;28.40;27.20;;;22.40;37.30;;;;;;5091275;28;20470;-47
2022/03/20 04:17:29;;;;;;;28.63;27.43;;;22.40;37.20;;;;;;5090978;28;20478;-48
2022/03/20 04:19:56;;;;;;;28.17;26.97;;;22.50;37.20;;;;;;5091249;28;20813;-49
2022/03/20 04:22:23;;;;;;;29.30;28.00;;;22.60;37.00;;;;;;5092504;28;20445;-53
2022/03/20 04:24:51;;;;;;;28.70;27.40;;;22.70;37.00;;;;;;5094609;28;20466;-48
2022/03/20 04:27:18;;;;;;;29.30;27.90;;;22.80;36.90;;;;;;5094703;28;20451;-47
2022/03/20 04:29:44;;;;;;;28.30;27.00;;;22.80;36.80;;;;;;5094907;28;20439;-48
2022/03/20 04:32:13;;;;;;;28.67;27.40;;;22.80;36.70;;;;;;5094881;28;20797;-49
2022/03/20 04:34:39;;;;;;;28.70;27.43;;;22.90;36.70;;;;;;5094707;28;20461;-47
2022/03/20 04:37:08;;;;;;;28.27;27.07;;;22.80;36.60;;;;;;5094190;28;20446;-47
2022/03/20 04:39:35;;;;;;;29.53;28.23;;;22.80;36.60;;;;;;5094477;28;20443;-47
2022/03/20 04:42:03;;;;;;;28.63;27.33;;;22.80;36.70;;;;;;5094582;28;20439;-47
2022/03/20 04:44:30;;;;;;;29.77;28.47;;;22.80;36.70;;;;;;5094540;28;20868;-50
2022/03/20 04:46:57;;;;;;;28.37;27.17;;;22.70;36.70;;;;;;5094287;28;20443;-48
2022/03/20 05:00:22;;;;;;;31.60;30.30;;;22.60;36.90;;;;;;5094129;28;20484;-48
2022/03/20 05:02:50;;;;;;;30.60;29.30;;;22.50;36.80;;;;;;5094462;28;20449;-47
2022/03/20 05:05:18;;;;;;;30.83;29.43;;;22.50;36.90;;;;;;5094258;28;20466;-47
2022/03/20 05:07:45;;;;;;;31.90;30.50;;;22.40;37.00;;;;;;5093908;28;20450;-47
2022/03/20 05:15:40;;;;;;;29.97;28.73;;;22.40;37.10;;;;;;5094002;28;20806;-47
2022/03/20 05:18:08;;;;;;;31.77;30.37;;;22.30;37.10;;;;;;5093534;28;20446;-47
2022/03/20 05:20:36;;;;;;;31.80;30.40;;;22.30;37.20;;;;;;5093747;28;20435;-48
2022/03/20 05:23:03;;;;;;;31.63;30.33;;;22.20;37.20;;;;;;5093736;28;20462;-50
2022/03/20 05:25:30;;;;;;;29.50;28.30;;;22.20;37.30;;;;;;5093845;28;20473;-48
2022/03/20 05:27:58;;;;;;;32.53;30.83;;;22.20;37.30;;;;;;5093778;28;20469;-50
2022/03/20 05:30:25;;;;;;;31.70;30.30;;;22.20;37.30;;;;;;5093449;28;20489;-50
2022/03/20 05:32:53;;;;;;;33.07;31.67;;;22.20;37.40;;;;;;5093763;28;20461;-48
2022/03/20 05:35:19;;;;;;;30.57;29.07;;;22.20;37.40;;;;;;5093002;28;20465;-47
2022/03/20 05:37:48;;;;;;;31.93;30.60;;;22.20;37.40;;;;;;5093542;28;20465;-47
2022/03/20 05:40:16;;;;;;;32.40;31.00;;;22.20;37.40;;;;;;5093657;28;20446;-47
2022/03/20 05:42:43;;;;;;;30.97;29.67;;;22.20;37.40;;;;;;5093160;28;20449;-48
2022/03/20 05:45:11;;;;;;;30.97;29.57;;;22.20;37.40;;;;;;5093480;28;20553;-49
2022/03/20 05:47:39;;;;;;;31.93;30.47;;;22.30;37.40;;;;;;5093458;28;20442;-48
2022/03/20 05:50:09;;;;;;;31.07;29.63;;;22.20;37.40;;;;;;5093237;28;20447;-49
2022/03/20 05:52:36;;;;;;;30.53;29.23;;;22.20;37.60;;;;;;5093412;28;20851;-49
2022/03/20 05:55:05;;;;;;;31.87;30.57;;;22.30;37.70;;;;;;5093080;28;20463;-48
2022/03/20 06:00:25;;;;;;;31.43;30.13;;;22.30;37.70;;;;;;5093306;28;20783;-49
2022/03/20 06:02:52;;;;;;;31.30;30.00;;;22.30;37.70;;;;;;5093097;28;20453;-49
2022/03/20 06:05:19;;;;;;;31.40;30.03;;;22.30;37.60;;;;;;5092730;28;21004;-47
2022/03/20 06:07:49;;;;;;;31.07;29.87;;;22.30;37.60;;;;;;5092728;28;20499;-47
2022/03/20 06:10:18;;;;;;;33.00;31.67;;;22.40;37.60;;;;;;5092876;28;20458;-47
2022/03/20 06:12:45;;;;;;;32.77;31.27;;;22.40;37.60;;;;;;5092840;28;20442;-47
2022/03/20 06:15:13;;;;;;;35.03;33.53;;;22.40;37.50;;;;;;5092546;28;20462;-47
2022/03/20 06:17:44;;;;;;;35.00;33.50;;;22.40;37.40;;;;;;5092654;28;20468;-48
2022/03/20 06:20:13;;;;;;;35.60;34.10;;;22.50;37.40;;;;;;5092735;28;20454;-48
2022/03/20 06:22:41;;;;;;;34.50;33.00;;;22.50;37.40;;;;;;5092459;28;20446;-49
2022/03/20 06:25:12;;;;;;;33.37;32.00;;;22.50;37.30;;;;;;5092849;28;20841;-48
2022/03/20 06:27:45;;;;;;;34.13;32.40;;;22.50;37.30;;;;;;5092488;28;20480;-48
2022/03/20 06:30:13;;;;;;;34.80;32.93;;;22.50;37.60;;;;;;5092377;28;20450;-51
2022/03/20 06:32:40;;;;;;;34.10;32.43;;;22.60;38.30;;;;;;5072395;28;20440;-49
2022/03/20 06:35:07;;;;;;;37.27;34.67;;;22.60;39.00;;;;;;5072104;28;20466;-49
2022/03/20 06:37:38;;;;;;;36.73;34.53;;;22.70;40.00;;;;;;5072160;28;20440;-47
2022/03/20 06:40:06;;;;;;;36.27;33.80;;;22.70;40.90;;;;;;5072092;28;20451;-50
2022/03/20 06:42:33;;;;;;;37.63;34.93;;;22.60;42.00;;;;;;5091526;28;20439;-49
2022/03/20 06:45:02;;;;;;;36.90;34.60;;;22.60;43.40;;;;;;5091919;28;20470;-48
2022/03/20 06:47:32;;;;;;;40.90;37.70;;;22.70;44.50;;;;;;5092246;28;20855;-47
2022/03/20 06:49:59;;;;;;;39.00;36.00;;;22.70;46.10;;;;;;5092115;28;20454;-47
2022/03/20 06:52:28;;;;;;;39.77;36.77;;;22.70;47.50;;;;;;5091726;28;20481;-47
2022/03/20 06:54:56;;;;;;;35.77;33.57;;;22.70;48.30;;;;;;5092003;28;20471;-47
2022/03/20 06:57:23;;;;;;;36.57;34.00;;;22.80;48.60;;;;;;5091995;28;20465;-47
2022/03/20 06:59:51;;;;;;;36.73;34.60;;;22.80;48.50;;;;;;5091957;28;20447;-48
2022/03/20 07:02:19;;;;;;;35.50;33.20;;;22.80;48.40;;;;;;5091820;28;20457;-48
2022/03/20 07:04:47;;;;;;;38.10;35.60;;;22.80;48.20;;;;;;5090667;28;20474;-50
2022/03/20 07:07:15;;;;;;;38.40;35.77;;;22.80;48.20;;;;;;5092002;28;20941;-51
2022/03/20 07:09:41;;;;;;;37.67;35.47;;;22.80;48.10;;;;;;5091673;28;20442;-50
2022/03/20 07:12:09;;;;;;;36.43;34.07;;;22.70;47.90;;;;;;5091808;28;20481;-49
2022/03/20 07:14:36;;;;;;;36.50;34.20;;;22.80;47.70;;;;;;5091170;28;20470;-50
2022/03/20 07:17:03;;;;;;;35.80;33.50;;;22.70;47.40;;;;;;5091870;28;20442;-51
2022/03/20 07:19:32;;;;;;;37.80;35.60;;;22.70;47.10;;;;;;5091512;28;20446;-46
2022/03/20 07:21:59;;;;;;;38.27;35.67;;;22.70;46.90;;;;;;5091730;28;20443;-47
2022/03/20 07:24:26;;;;;;;38.27;35.70;;;22.70;46.70;;;;;;5091427;28;20470;-47
2022/03/20 07:29:37;;;;;;;33.83;31.50;;;22.60;46.10;;;;;;5091604;28;20418;-47
2022/03/20 07:32:06;;;;;;;36.63;34.53;;;22.60;45.90;;;;;;5091575;28;20478;-47
2022/03/20 07:34:35;;;;;;;36.87;34.77;;;22.60;45.90;;;;;;5091593;28;21020;-47
2022/03/20 07:37:03;;;;;;;34.87;32.83;;;22.60;45.80;;;;;;5092106;28;20500;-47
2022/03/20 07:39:30;;;;;;;37.13;34.73;;;22.60;45.60;;;;;;5091487;28;20458;-49
2022/03/20 07:41:57;;;;;;;35.60;33.17;;;22.50;45.40;;;;;;5091741;28;20529;-49
2022/03/20 07:44:24;;;;;;;34.80;32.70;;;22.60;45.40;;;;;;5091778;28;20467;-47
2022/03/20 07:46:52;;;;;;;36.63;34.27;;;22.60;45.10;;;;;;5091602;28;20439;-50
2022/03/20 07:49:19;;;;;;;35.47;33.47;;;22.60;44.80;;;;;;5091555;28;20454;-48
2022/03/20 07:51:47;;;;;;;35.53;33.67;;;22.70;44.70;;;;;;5091900;28;20841;-50
2022/03/20 07:54:14;;;;;;;35.60;33.53;;;22.70;44.50;;;;;;5091619;28;20467;-47
2022/03/20 07:56:41;;;;;;;34.37;32.53;;;22.70;44.30;;;;;;5092050;28;20439;-47
2022/03/20 07:59:09;;;;;;;34.13;32.33;;;22.70;44.00;;;;;;5095598;28;20457;-49
2022/03/20 08:01:36;;;;;;;35.03;33.13;;;22.70;43.90;;;;;;5095659;28;20445;-47
2022/03/20 08:04:04;;;;;;;34.30;32.40;;;22.80;43.80;;;;;;5095274;28;20477;-48
2022/03/20 08:06:31;;;;;;;35.23;32.97;;;22.80;43.60;;;;;;5095075;28;20451;-48
2022/03/20 08:09:00;;;;;;;34.20;32.30;;;22.90;43.30;;;;;;5094900;28;20829;-47
2022/03/20 08:11:27;;;;;;;38.67;36.70;;;23.00;43.00;;;;;;5095040;28;20478;-48
2022/03/20 08:13:54;;;;;;;36.47;34.40;;;23.00;42.80;;;;;;5095016;28;20949;-49
2022/03/20 08:16:22;;;;;;;39.13;37.17;;;23.10;42.60;;;;;;5095038;28;21006;-50
2022/03/20 08:18:49;;;;;;;36.87;34.40;;;23.20;42.40;;;;;;5094402;28;20473;-47
2022/03/20 08:21:16;;;;;;;36.03;34.20;;;23.20;42.10;;;;;;5095102;28;20936;-48
2022/03/20 08:23:43;;;;;;;36.00;34.10;;;23.30;42.00;;;;;;5094484;28;20522;-47
2022/03/20 08:26:12;;;;;;;36.00;33.80;;;23.20;41.70;;;;;;5094843;28;20991;-49
2022/03/20 08:28:39;;;;;;;36.00;34.20;;;23.30;41.70;;;;;;5094341;28;20447;-49
2022/03/20 08:31:06;;;;;;;36.60;34.50;;;23.30;41.50;;;;;;5094815;28;20465;-51
2022/03/20 08:33:33;;;;;;;35.93;34.10;;;23.30;41.40;;;;;;5094949;28;20515;-52
2022/03/20 08:36:01;;;;;;;36.40;34.50;;;23.40;41.40;;;;;;5093780;28;20462;-53
2022/03/20 08:38:28;;;;;;;34.97;33.20;;;23.30;41.10;;;;;;5094366;28;20443;-54
2022/03/20 08:40:55;;;;;;;35.03;33.00;;;23.20;40.90;;;;;;5094600;28;20443;-54
2022/03/20 08:43:23;;;;;;;35.67;33.77;;;23.10;40.90;;;;;;5094647;28;20488;-50
2022/03/20 08:45:50;;;;;;;33.90;32.10;;;23.10;41.10;;;;;;5093853;28;20982;-49
2022/03/20 08:48:18;;;;;;;36.27;34.47;;;23.10;41.10;;;;;;5094146;28;20446;-49
2022/03/20 08:50:48;;;;;;;36.10;34.27;;;23.00;41.30;;;;;;5094423;28;20500;-47
2022/03/20 08:53:16;;;;;;;35.93;34.13;;;23.00;41.90;;;;;;5093902;28;20527;-48
2022/03/20 08:55:43;;;;;;;37.00;34.83;;;23.00;42.40;;;;;;5094356;28;20469;-49
2022/03/20 08:58:09;;;;;;;36.40;34.50;;;22.90;42.50;;;;;;5094501;28;20447;-48
2022/03/20 09:00:38;;;;;;;37.27;35.07;;;22.90;42.60;;;;;;5094326;28;20470;-52
2022/03/20 09:03:04;;;;;;;35.03;33.30;;;22.80;42.50;;;;;;5093872;28;20495;-50
2022/03/20 09:05:31;;;;;;;36.50;34.40;;;22.80;42.50;;;;;;5117997;22;20482;-48
2022/03/20 09:07:58;;;;;;;36.23;34.37;;;22.80;42.30;;;;;;5093734;28;20445;-50
2022/03/20 09:10:26;;;;;;;35.87;33.87;;;22.80;42.30;;;;;;5093987;28;20504;-49
2022/03/20 09:12:55;;;;;;;36.70;34.60;;;22.90;42.20;;;;;;5093955;28;21019;-53
2022/03/20 09:15:23;;;;;;;36.83;34.63;;;22.90;41.70;;;;;;5094031;28;20474;-51
2022/03/20 09:20:37;;;;;;;37.53;35.60;;;23.00;41.60;;;;;;5093799;28;20898;-50
2022/03/20 09:23:04;;;;;;;33.90;32.10;;;23.10;41.80;;;;;;5093957;28;20443;-55
2022/03/20 09:25:32;;;;;;;38.27;36.33;;;23.30;42.30;;;;;;5093857;28;20470;-54
2022/03/20 09:27:59;;;;;;;37.70;35.77;;;23.40;42.30;;;;;;5093783;28;20500;-49
2022/03/20 09:30:26;;;;;;;37.53;35.43;;;23.50;42.00;;;;;;5093762;28;20446;-51
2022/03/20 09:32:55;;;;;;;35.40;33.60;;;23.60;41.60;;;;;;5093321;28;20488;-51
2022/03/20 09:35:22;;;;;;;36.90;35.20;;;23.80;41.20;;;;;;5093557;28;21022;-51
2022/03/20 09:37:49;;;;;;;39.13;37.10;;;23.90;40.70;;;;;;5093685;28;20878;-49
2022/03/20 09:40:21;;;;;;;41.43;38.93;;;24.00;40.40;;;;;;5093461;28;20474;-53
2022/03/20 09:42:49;;;;;;;36.27;34.43;;;24.20;40.20;;;;;;5093245;28;20443;-50
2022/03/20 09:45:18;;;;;;;34.33;32.50;;;24.20;39.80;;;;;;5093488;28;20553;-51
2022/03/20 09:47:46;;;;;;;38.40;36.60;;;24.20;39.50;;;;;;5093260;28;20446;-50
2022/03/20 09:50:15;;;;;;;37.90;35.90;;;24.20;39.80;;;;;;5093174;28;20504;-53
2022/03/20 09:52:43;;;;;;;37.43;35.47;;;24.20;39.90;;;;;;5093184;28;20483;-52
2022/03/20 09:55:10;;;;;;;37.50;35.40;;;24.20;39.90;;;;;;5093107;28;20477;-56
2022/03/20 09:57:37;;;;;;;37.13;35.43;;;24.30;39.80;;;;;;5093080;28;20446;-55
2022/03/20 10:00:11;;;;;;;39.33;37.30;;;24.30;39.70;;;;;;5093137;28;20438;-54
2022/03/20 10:02:38;;;;;;;38.70;36.90;;;24.20;39.70;;;;;;5092906;28;20439;-51
2022/03/20 10:05:07;;;;;;;37.67;35.60;;;24.20;39.70;;;;;;5092827;28;20989;-52
2022/03/20 10:07:40;;;;;;;35.93;34.17;;;24.20;39.50;;;;;;5092930;28;20443;-51
2022/03/20 10:10:15;;;;;;;37.70;35.43;;;24.20;39.00;;;;;;5092887;28;20443;-49
2022/03/20 10:12:44;;;;;;;36.70;35.00;;;24.20;39.60;;;;;;5092851;28;20474;-52
2022/03/20 10:15:25;;;;;;;38.93;37.10;;;24.10;39.10;;;;;;5092639;28;20524;-53
2022/03/20 10:18:05;;;;;;;38.10;36.10;;;24.10;39.10;;;;;;5092789;28;20439;-53
2022/03/20 10:20:36;;;;;;;35.67;33.80;;;24.10;38.90;;;;;;5092337;28;20503;-51
2022/03/20 10:23:04;;;;;;;35.93;34.30;;;24.10;38.90;;;;;;5092763;28;20443;-57
2022/03/20 10:25:31;;;;;;;36.70;34.80;;;24.10;39.00;;;;;;5092504;28;20520;-52
2022/03/20 10:28:00;;;;;;;36.75;34.65;;;24.10;39.00;;;;;;5092510;28;20428;-50
2022/03/20 10:30:27;;;;;;;36.40;34.60;;;24.20;39.10;;;;;;5092589;28;20659;-50
2022/03/20 10:32:54;;;;;;;36.83;35.03;;;24.30;39.20;;;;;;5092454;28;20485;-51
2022/03/20 10:35:21;;;;;;;39.73;37.83;;;24.40;39.00;;;;;;5092229;28;20547;-51
2022/03/20 10:37:54;;;;;;;36.90;35.07;;;24.40;38.80;;;;;;5092241;28;20953;-54
2022/03/20 10:40:24;;;;;;;35.73;34.07;;;24.50;38.80;;;;;;5092344;28;20820;-53
2022/03/20 10:43:09;;;;;;;38.80;36.90;;;24.50;38.70;;;;;;5092062;28;20890;-54
2022/03/20 10:46:00;;;;;;;36.90;35.00;;;24.50;38.60;;;;;;5092209;28;20470;-52
2022/03/20 10:48:37;;;;;;;35.87;34.10;;;24.60;38.50;;;;;;5092121;28;20442;-52
2022/03/20 10:51:05;;;;;;;38.03;36.20;;;24.70;38.70;;;;;;5092258;28;20785;-55
2022/03/20 10:53:32;;;;;;;36.87;35.07;;;24.70;38.30;;;;;;5091616;28;20478;-57
2022/03/20 10:56:07;;;;;;;37.67;35.67;;;24.70;38.20;;;;;;5092068;28;20462;-52
2022/03/20 10:58:38;;;;;;;33.03;31.47;;;24.70;38.10;;;;;;5091998;28;20445;-50
2022/03/20 11:01:07;;;;;;;38.20;36.40;;;24.80;38.00;;;;;;5092276;28;20447;-55
2022/03/20 11:03:36;;;;;;;36.43;34.53;;;24.80;37.90;;;;;;5091905;28;20434;-51
2022/03/20 11:06:06;;;;;;;34.57;32.97;;;24.90;37.90;;;;;;5091858;28;20493;-56
2022/03/20 11:08:33;;;;;;;36.80;34.90;;;25.00;37.70;;;;;;5091810;28;20443;-56
2022/03/20 11:11:02;;;;;;;35.77;33.97;;;25.10;37.50;;;;;;5092027;28;20451;-52
2022/03/20 11:13:29;;;;;;;35.50;33.80;;;25.20;37.40;;;;;;5092462;28;20474;-50
2022/03/20 11:15:59;;;;;;;34.35;32.58;;;25.20;37.10;;;;;;5091907;28;20444;-47
2022/03/20 11:18:28;;;;;;;32.33;30.73;;;25.20;37.00;;;;;;5092131;28;20437;-50
2022/03/20 11:20:55;;;;;;;32.75;31.15;;;25.30;37.10;;;;;;5090932;28;20436;-51
2022/03/20 11:23:24;;;;;;;38.70;36.87;;;25.40;36.90;;;;;;5092264;28;20200;-56
2022/03/20 11:25:55;;;;;;;39.37;37.27;;;25.40;36.80;;;;;;5092363;28;20498;-54
2022/03/20 11:28:25;;;;;;;51.77;48.57;;;24.90;35.00;;;;;;5091578;28;20580;-52
2022/03/20 11:30:53;;;;;;;46.40;43.70;;;24.40;33.70;;;;;;5091783;28;20443;-56
2022/03/20 11:33:24;;;;;;;45.00;42.30;;;23.80;33.80;;;;;;5095298;28;20485;-57
2022/03/20 11:35:52;;;;;;;40.97;38.77;;;24.00;33.90;;;;;;5095890;28;20462;-55
2022/03/20 11:38:20;;;;;;;42.60;40.20;;;24.30;33.90;;;;;;5095445;28;20447;-51
2022/03/20 11:41:08;;;;;;;43.70;41.30;;;24.50;34.40;;;;;;5095827;28;20442;-57
2022/03/20 11:43:37;;;;;;;39.07;36.77;;;24.50;34.80;;;;;;5096028;28;20451;-55
2022/03/20 11:46:21;;;;;;;41.70;39.50;;;24.70;35.20;;;;;;5095526;28;20470;-56
2022/03/20 11:49:21;;;;;;;40.30;38.30;;;24.80;35.30;;;;;;5075484;28;20450;-56
2022/03/20 11:52:07;;;;;;;39.67;37.77;;;24.70;35.60;;;;;;5075484;28;20450;-58
2022/03/20 11:54:52;;;;;;;41.97;39.83;;;24.80;35.80;;;;;;5075491;28;20463;-53
2022/03/20 11:57:38;;;;;;;39.73;37.83;;;24.80;36.00;;;;;;5086573;28;20458;-59
2022/03/20 12:00:13;;;;;;;41.00;39.00;;;24.80;36.00;;;;;;5095613;28;20442;-52
2022/03/20 12:02:53;;;;;;;40.60;38.60;;;24.70;36.40;;;;;;5095533;28;20445;-57
2022/03/20 12:05:33;;;;;;;39.87;37.97;;;24.50;36.40;;;;;;5095356;28;20867;-55
2022/03/20 12:08:10;;;;;;;41.30;39.20;;;24.40;36.60;;;;;;5095356;28;20449;-51
2022/03/20 12:10:50;;;;;;;41.37;39.43;;;24.20;37.00;;;;;;5095104;28;20442;-55
2022/03/20 12:13:25;;;;;;;40.80;38.80;;;24.10;37.30;;;;;;5095406;28;20503;-56
2022/03/20 12:15:55;;;;;;;39.07;37.13;;;23.90;37.40;;;;;;5095458;28;20458;-56
2022/03/20 12:18:21;;;;;;;38.97;36.90;;;23.80;37.60;;;;;;5094969;28;20450;-56
2022/03/20 12:21:03;;;;;;;38.63;36.83;;;23.70;37.90;;;;;;5094972;28;20443;-55
2022/03/20 12:23:44;;;;;;;38.97;37.17;;;23.60;38.10;;;;;;5095188;28;20448;-55
2022/03/20 12:26:42;;;;;;;40.50;38.60;;;23.40;38.30;;;;;;5095008;28;20461;-54
2022/03/20 12:29:38;;;;;;;38.80;36.97;;;23.30;38.50;;;;;;5095087;28;20472;-54
2022/03/20 12:32:11;;;;;;;39.90;37.90;;;23.20;38.70;;;;;;5094533;28;20451;-56
2022/03/20 12:34:38;;;;;;;39.67;37.70;;;23.10;38.90;;;;;;5094841;28;20467;-54
2022/03/20 12:37:39;;;;;;;39.27;37.57;;;23.00;38.90;;;;;;5095074;28;20806;-57
2022/03/20 12:40:11;;;;;;;39.57;37.70;;;23.00;39.10;;;;;;5094416;28;20454;-57
2022/03/20 12:42:40;;;;;;;39.60;37.80;;;22.90;39.20;;;;;;5094380;28;20439;-54
2022/03/20 12:45:09;;;;;;;39.10;37.30;;;22.80;39.20;;;;;;5094524;28;20458;-53
2022/03/20 12:47:37;;;;;;;39.83;37.90;;;22.80;39.40;;;;;;5094180;28;20813;-56
2022/03/20 12:50:07;;;;;;;38.43;36.70;;;22.70;39.50;;;;;;5094506;28;20443;-51
2022/03/20 12:52:35;;;;;;;39.50;37.70;;;22.60;39.60;;;;;;5094478;28;20842;-56
2022/03/20 12:55:05;;;;;;;39.70;37.80;;;22.50;39.80;;;;;;5094440;28;20462;-53
2022/03/20 12:57:39;;;;;;;40.73;38.93;;;22.50;39.90;;;;;;5094069;28;20442;-55
2022/03/20 13:00:11;;;;;;;39.97;38.20;;;22.40;40.00;;;;;;5074088;28;20451;-56
2022/03/20 13:03:07;;;;;;;40.10;38.30;;;22.30;40.00;;;;;;5074229;28;20447;-57
2022/03/20 13:05:38;;;;;;;38.53;36.73;;;22.20;40.10;;;;;;5073985;28;20503;-54
2022/03/20 13:08:05;;;;;;;39.03;37.33;;;22.20;40.30;;;;;;5076703;28;20442;-55